sensor_id;sensor_type;location;lat;lon;timestamp;P1;durP1;ratioP1;P2;durP2;ratioP2
17566;SDS011;8901;52.088;5.084;2023-02-04T00:01:25;60.30;;;55.53;;
17566;SDS011;8901;52.088;5.084;2023-02-04T00:03:52;58.23;;;53.73;;
17566;SDS011;8901;52.088;5.084;2023-02-04T00:06:19;56.30;;;52.20;;
17566;SDS011;8901;52.088;5.084;2023-02-04T00:08:47;60.23;;;55.53;;
17566;SDS011;8901;52.088;5.084;2023-02-04T00:11:15;61.43;;;56.33;;
17566;SDS011;8901;52.088;5.084;2023-02-04T00:13:42;57.57;;;53.03;;
17566;SDS011;8901;52.088;5.084;2023-02-04T00:16:09;55.90;;;51.90;;
17566;SDS011;8901;52.088;5.084;2023-02-04T00:18:37;54.03;;;50.07;;
17566;SDS011;8901;52.088;5.084;2023-02-04T00:21:04;53.40;;;49.43;;
17566;SDS011;8901;52.088;5.084;2023-02-04T00:23:31;54.80;;;50.57;;
17566;SDS011;8901;52.088;5.084;2023-02-04T00:25:58;54.77;;;50.23;;
17566;SDS011;8901;52.088;5.084;2023-02-04T00:28:27;54.27;;;49.60;;
17566;SDS011;8901;52.088;5.084;2023-02-04T00:30:54;53.30;;;48.73;;
17566;SDS011;8901;52.088;5.084;2023-02-04T00:33:21;54.43;;;49.63;;
17566;SDS011;8901;52.088;5.084;2023-02-04T00:35:48;54.97;;;50.37;;
17566;SDS011;8901;52.088;5.084;2023-02-04T00:38:15;54.97;;;50.80;;
17566;SDS011;8901;52.088;5.084;2023-02-04T00:40:43;54.60;;;50.00;;
17566;SDS011;8901;52.088;5.084;2023-02-04T00:43:10;52.70;;;48.57;;
17566;SDS011;8901;52.088;5.084;2023-02-04T00:45:38;53.70;;;49.60;;
17566;SDS011;8901;52.088;5.084;2023-02-04T00:48:05;53.87;;;49.53;;
17566;SDS011;8901;52.088;5.084;2023-02-04T00:50:33;54.93;;;50.63;;
17566;SDS011;8901;52.088;5.084;2023-02-04T00:53:04;57.13;;;51.53;;
17566;SDS011;8901;52.088;5.084;2023-02-04T00:55:32;54.97;;;50.50;;
17566;SDS011;8901;52.088;5.084;2023-02-04T00:57:59;55.07;;;50.30;;
17566;SDS011;8901;52.088;5.084;2023-02-04T01:00:27;55.03;;;50.67;;
17566;SDS011;8901;52.088;5.084;2023-02-04T01:02:55;55.17;;;50.40;;
17566;SDS011;8901;52.088;5.084;2023-02-04T01:05:23;52.80;;;48.87;;
17566;SDS011;8901;52.088;5.084;2023-02-04T01:07:50;56.00;;;51.43;;
17566;SDS011;8901;52.088;5.084;2023-02-04T01:10:17;55.47;;;50.83;;
17566;SDS011;8901;52.088;5.084;2023-02-04T01:12:44;55.93;;;51.23;;
17566;SDS011;8901;52.088;5.084;2023-02-04T01:15:11;53.90;;;49.57;;
17566;SDS011;8901;52.088;5.084;2023-02-04T01:17:38;52.53;;;48.33;;
17566;SDS011;8901;52.088;5.084;2023-02-04T01:20:08;54.87;;;49.93;;
17566;SDS011;8901;52.088;5.084;2023-02-04T01:22:35;56.10;;;51.30;;
17566;SDS011;8901;52.088;5.084;2023-02-04T01:25:08;54.70;;;49.73;;
17566;SDS011;8901;52.088;5.084;2023-02-04T01:27:35;54.63;;;50.03;;
17566;SDS011;8901;52.088;5.084;2023-02-04T01:30:03;54.97;;;50.70;;
17566;SDS011;8901;52.088;5.084;2023-02-04T01:32:30;55.23;;;50.47;;
17566;SDS011;8901;52.088;5.084;2023-02-04T01:34:59;53.93;;;49.07;;
17566;SDS011;8901;52.088;5.084;2023-02-04T01:37:28;54.10;;;49.90;;
17566;SDS011;8901;52.088;5.084;2023-02-04T01:39:57;56.30;;;51.87;;
17566;SDS011;8901;52.088;5.084;2023-02-04T01:42:26;54.43;;;49.83;;
17566;SDS011;8901;52.088;5.084;2023-02-04T01:44:54;56.10;;;51.47;;
17566;SDS011;8901;52.088;5.084;2023-02-04T01:47:22;56.30;;;51.53;;
17566;SDS011;8901;52.088;5.084;2023-02-04T01:49:50;56.77;;;51.83;;
17566;SDS011;8901;52.088;5.084;2023-02-04T01:52:18;53.60;;;49.10;;
17566;SDS011;8901;52.088;5.084;2023-02-04T01:54:46;54.30;;;49.27;;
17566;SDS011;8901;52.088;5.084;2023-02-04T01:57:15;53.10;;;48.87;;
17566;SDS011;8901;52.088;5.084;2023-02-04T01:59:42;51.27;;;46.50;;
17566;SDS011;8901;52.088;5.084;2023-02-04T02:04:55;51.77;;;46.97;;
17566;SDS011;8901;52.088;5.084;2023-02-04T02:07:22;52.87;;;48.33;;
17566;SDS011;8901;52.088;5.084;2023-02-04T02:09:54;54.07;;;48.97;;
17566;SDS011;8901;52.088;5.084;2023-02-04T02:12:21;50.50;;;45.93;;
17566;SDS011;8901;52.088;5.084;2023-02-04T02:14:48;48.37;;;44.07;;
17566;SDS011;8901;52.088;5.084;2023-02-04T02:17:15;48.27;;;43.97;;
17566;SDS011;8901;52.088;5.084;2023-02-04T02:19:43;47.27;;;43.43;;
17566;SDS011;8901;52.088;5.084;2023-02-04T02:22:12;50.07;;;45.60;;
17566;SDS011;8901;52.088;5.084;2023-02-04T02:24:42;47.87;;;44.00;;
17566;SDS011;8901;52.088;5.084;2023-02-04T02:27:10;48.97;;;44.33;;
17566;SDS011;8901;52.088;5.084;2023-02-04T02:29:38;49.63;;;45.20;;
17566;SDS011;8901;52.088;5.084;2023-02-04T02:32:06;52.07;;;47.47;;
17566;SDS011;8901;52.088;5.084;2023-02-04T02:34:34;53.50;;;48.77;;
17566;SDS011;8901;52.088;5.084;2023-02-04T02:37:01;53.30;;;48.90;;
17566;SDS011;8901;52.088;5.084;2023-02-04T02:39:29;54.60;;;49.67;;
17566;SDS011;8901;52.088;5.084;2023-02-04T02:41:57;53.70;;;48.97;;
17566;SDS011;8901;52.088;5.084;2023-02-04T02:44:25;56.47;;;51.77;;
17566;SDS011;8901;52.088;5.084;2023-02-04T02:46:52;54.77;;;50.50;;
17566;SDS011;8901;52.088;5.084;2023-02-04T02:49:20;53.47;;;48.87;;
17566;SDS011;8901;52.088;5.084;2023-02-04T02:51:48;57.27;;;52.60;;
17566;SDS011;8901;52.088;5.084;2023-02-04T02:54:18;55.33;;;51.03;;
17566;SDS011;8901;52.088;5.084;2023-02-04T02:56:46;56.60;;;51.87;;
17566;SDS011;8901;52.088;5.084;2023-02-04T02:59:15;58.93;;;54.43;;
17566;SDS011;8901;52.088;5.084;2023-02-04T03:01:43;57.40;;;52.80;;
17566;SDS011;8901;52.088;5.084;2023-02-04T03:04:11;59.33;;;54.60;;
17566;SDS011;8901;52.088;5.084;2023-02-04T03:06:38;55.10;;;50.73;;
17566;SDS011;8901;52.088;5.084;2023-02-04T03:09:05;58.27;;;54.30;;
17566;SDS011;8901;52.088;5.084;2023-02-04T03:11:32;57.27;;;52.60;;
17566;SDS011;8901;52.088;5.084;2023-02-04T03:14:00;60.13;;;55.27;;
17566;SDS011;8901;52.088;5.084;2023-02-04T03:16:30;59.03;;;54.67;;
17566;SDS011;8901;52.088;5.084;2023-02-04T03:18:58;61.63;;;56.83;;
17566;SDS011;8901;52.088;5.084;2023-02-04T03:21:25;60.80;;;55.87;;
17566;SDS011;8901;52.088;5.084;2023-02-04T03:23:53;59.40;;;55.10;;
17566;SDS011;8901;52.088;5.084;2023-02-04T03:26:21;60.23;;;55.73;;
17566;SDS011;8901;52.088;5.084;2023-02-04T03:28:48;60.17;;;55.73;;
17566;SDS011;8901;52.088;5.084;2023-02-04T03:31:15;62.90;;;58.00;;
17566;SDS011;8901;52.088;5.084;2023-02-04T03:33:44;62.33;;;58.03;;
17566;SDS011;8901;52.088;5.084;2023-02-04T03:36:11;61.37;;;56.53;;
17566;SDS011;8901;52.088;5.084;2023-02-04T03:38:38;61.97;;;57.37;;
17566;SDS011;8901;52.088;5.084;2023-02-04T03:41:05;60.90;;;56.33;;
17566;SDS011;8901;52.088;5.084;2023-02-04T03:43:33;63.40;;;58.53;;
17566;SDS011;8901;52.088;5.084;2023-02-04T03:46:00;59.47;;;54.67;;
17566;SDS011;8901;52.088;5.084;2023-02-04T03:48:27;60.43;;;55.93;;
17566;SDS011;8901;52.088;5.084;2023-02-04T03:50:55;61.67;;;56.77;;
17566;SDS011;8901;52.088;5.084;2023-02-04T03:53:23;62.80;;;58.10;;
17566;SDS011;8901;52.088;5.084;2023-02-04T03:55:50;61.53;;;56.63;;
17566;SDS011;8901;52.088;5.084;2023-02-04T03:58:17;62.40;;;57.60;;
17566;SDS011;8901;52.088;5.084;2023-02-04T04:00:44;59.07;;;54.87;;
17566;SDS011;8901;52.088;5.084;2023-02-04T04:03:11;61.80;;;57.20;;
17566;SDS011;8901;52.088;5.084;2023-02-04T04:05:38;60.50;;;55.77;;
17566;SDS011;8901;52.088;5.084;2023-02-04T04:08:07;58.13;;;53.73;;
17566;SDS011;8901;52.088;5.084;2023-02-04T04:10:34;58.73;;;53.83;;
17566;SDS011;8901;52.088;5.084;2023-02-04T04:13:01;59.67;;;55.13;;
17566;SDS011;8901;52.088;5.084;2023-02-04T04:15:29;60.23;;;55.43;;
17566;SDS011;8901;52.088;5.084;2023-02-04T04:17:56;61.17;;;55.93;;
17566;SDS011;8901;52.088;5.084;2023-02-04T04:20:23;60.53;;;55.67;;
17566;SDS011;8901;52.088;5.084;2023-02-04T04:22:52;61.27;;;56.30;;
17566;SDS011;8901;52.088;5.084;2023-02-04T04:25:21;63.60;;;58.47;;
17566;SDS011;8901;52.088;5.084;2023-02-04T04:27:48;58.80;;;53.73;;
17566;SDS011;8901;52.088;5.084;2023-02-04T04:30:15;60.33;;;56.00;;
17566;SDS011;8901;52.088;5.084;2023-02-04T04:32:42;61.00;;;56.40;;
17566;SDS011;8901;52.088;5.084;2023-02-04T04:35:09;62.80;;;58.00;;
17566;SDS011;8901;52.088;5.084;2023-02-04T04:37:37;61.50;;;56.57;;
17566;SDS011;8901;52.088;5.084;2023-02-04T04:40:04;62.80;;;57.57;;
17566;SDS011;8901;52.088;5.084;2023-02-04T04:42:33;57.77;;;53.57;;
17566;SDS011;8901;52.088;5.084;2023-02-04T04:45:00;63.57;;;58.90;;
17566;SDS011;8901;52.088;5.084;2023-02-04T04:47:27;63.80;;;59.13;;
17566;SDS011;8901;52.088;5.084;2023-02-04T04:49:54;61.60;;;56.57;;
17566;SDS011;8901;52.088;5.084;2023-02-04T04:52:21;63.43;;;58.70;;
17566;SDS011;8901;52.088;5.084;2023-02-04T04:54:48;60.83;;;56.37;;
17566;SDS011;8901;52.088;5.084;2023-02-04T04:57:15;62.53;;;58.23;;
17566;SDS011;8901;52.088;5.084;2023-02-04T04:59:44;61.67;;;56.73;;
17566;SDS011;8901;52.088;5.084;2023-02-04T05:02:11;62.70;;;58.43;;
17566;SDS011;8901;52.088;5.084;2023-02-04T05:04:38;64.37;;;59.17;;
17566;SDS011;8901;52.088;5.084;2023-02-04T05:07:05;61.50;;;56.50;;
17566;SDS011;8901;52.088;5.084;2023-02-04T05:09:33;62.37;;;57.87;;
17566;SDS011;8901;52.088;5.084;2023-02-04T05:12:00;60.37;;;55.87;;
17566;SDS011;8901;52.088;5.084;2023-02-04T05:14:27;62.70;;;57.83;;
17566;SDS011;8901;52.088;5.084;2023-02-04T05:16:56;58.10;;;53.70;;
17566;SDS011;8901;52.088;5.084;2023-02-04T05:19:23;62.50;;;58.30;;
17566;SDS011;8901;52.088;5.084;2023-02-04T05:21:50;60.70;;;56.70;;
17566;SDS011;8901;52.088;5.084;2023-02-04T05:24:18;61.93;;;57.27;;
17566;SDS011;8901;52.088;5.084;2023-02-04T05:26:45;60.27;;;56.47;;
17566;SDS011;8901;52.088;5.084;2023-02-04T05:29:12;65.30;;;60.57;;
17566;SDS011;8901;52.088;5.084;2023-02-04T05:31:39;62.73;;;58.30;;
17566;SDS011;8901;52.088;5.084;2023-02-04T05:34:08;62.40;;;57.87;;
17566;SDS011;8901;52.088;5.084;2023-02-04T05:36:35;62.53;;;58.10;;
17566;SDS011;8901;52.088;5.084;2023-02-04T05:39:02;62.63;;;57.57;;
17566;SDS011;8901;52.088;5.084;2023-02-04T05:41:29;64.17;;;59.47;;
17566;SDS011;8901;52.088;5.084;2023-02-04T05:43:56;59.30;;;55.23;;
17566;SDS011;8901;52.088;5.084;2023-02-04T05:46:23;61.27;;;56.77;;
17566;SDS011;8901;52.088;5.084;2023-02-04T05:48:50;61.60;;;57.23;;
17566;SDS011;8901;52.088;5.084;2023-02-04T05:51:19;60.70;;;56.43;;
17566;SDS011;8901;52.088;5.084;2023-02-04T05:53:46;60.67;;;56.43;;
17566;SDS011;8901;52.088;5.084;2023-02-04T05:56:13;60.27;;;56.10;;
17566;SDS011;8901;52.088;5.084;2023-02-04T05:58:41;59.53;;;55.40;;
17566;SDS011;8901;52.088;5.084;2023-02-04T06:01:08;59.97;;;55.33;;
17566;SDS011;8901;52.088;5.084;2023-02-04T06:03:35;60.77;;;56.70;;
17566;SDS011;8901;52.088;5.084;2023-02-04T06:06:02;61.93;;;56.83;;
17566;SDS011;8901;52.088;5.084;2023-02-04T06:08:30;58.93;;;54.30;;
17566;SDS011;8901;52.088;5.084;2023-02-04T06:10:58;60.40;;;55.60;;
17566;SDS011;8901;52.088;5.084;2023-02-04T06:13:25;59.50;;;55.37;;
17566;SDS011;8901;52.088;5.084;2023-02-04T06:15:52;57.43;;;53.27;;
17566;SDS011;8901;52.088;5.084;2023-02-04T06:18:19;58.77;;;54.77;;
17566;SDS011;8901;52.088;5.084;2023-02-04T06:20:46;56.37;;;52.03;;
17566;SDS011;8901;52.088;5.084;2023-02-04T06:23:13;57.93;;;53.97;;
17566;SDS011;8901;52.088;5.084;2023-02-04T06:25:42;54.97;;;51.13;;
17566;SDS011;8901;52.088;5.084;2023-02-04T06:28:09;56.03;;;52.23;;
17566;SDS011;8901;52.088;5.084;2023-02-04T06:30:36;57.37;;;53.47;;
17566;SDS011;8901;52.088;5.084;2023-02-04T06:33:03;58.03;;;53.87;;
17566;SDS011;8901;52.088;5.084;2023-02-04T06:35:31;57.33;;;53.37;;
17566;SDS011;8901;52.088;5.084;2023-02-04T06:37:58;57.83;;;53.40;;
17566;SDS011;8901;52.088;5.084;2023-02-04T06:40:25;58.63;;;54.40;;
17566;SDS011;8901;52.088;5.084;2023-02-04T06:42:54;57.97;;;53.87;;
17566;SDS011;8901;52.088;5.084;2023-02-04T06:45:21;58.27;;;54.00;;
17566;SDS011;8901;52.088;5.084;2023-02-04T06:47:48;55.60;;;51.30;;
17566;SDS011;8901;52.088;5.084;2023-02-04T06:50:15;55.23;;;51.33;;
17566;SDS011;8901;52.088;5.084;2023-02-04T06:52:43;56.70;;;52.30;;
17566;SDS011;8901;52.088;5.084;2023-02-04T06:55:11;56.97;;;52.97;;
17566;SDS011;8901;52.088;5.084;2023-02-04T06:57:38;57.37;;;53.00;;
17566;SDS011;8901;52.088;5.084;2023-02-04T07:00:08;56.00;;;52.07;;
17566;SDS011;8901;52.088;5.084;2023-02-04T07:02:35;56.57;;;52.57;;
17566;SDS011;8901;52.088;5.084;2023-02-04T07:05:04;58.23;;;53.63;;
17566;SDS011;8901;52.088;5.084;2023-02-04T07:07:31;56.40;;;52.30;;
17566;SDS011;8901;52.088;5.084;2023-02-04T07:09:58;58.13;;;53.87;;
17566;SDS011;8901;52.088;5.084;2023-02-04T07:12:25;58.90;;;54.90;;
17566;SDS011;8901;52.088;5.084;2023-02-04T07:14:52;58.17;;;54.23;;
17566;SDS011;8901;52.088;5.084;2023-02-04T07:17:21;57.13;;;52.90;;
17566;SDS011;8901;52.088;5.084;2023-02-04T07:19:48;59.00;;;55.20;;
17566;SDS011;8901;52.088;5.084;2023-02-04T07:22:16;58.43;;;54.40;;
17566;SDS011;8901;52.088;5.084;2023-02-04T07:24:44;59.23;;;55.17;;
17566;SDS011;8901;52.088;5.084;2023-02-04T07:27:11;59.03;;;55.17;;
17566;SDS011;8901;52.088;5.084;2023-02-04T07:29:38;62.87;;;57.87;;
17566;SDS011;8901;52.088;5.084;2023-02-04T07:32:05;63.93;;;59.27;;
17566;SDS011;8901;52.088;5.084;2023-02-04T07:34:34;62.53;;;58.10;;
17566;SDS011;8901;52.088;5.084;2023-02-04T07:37:01;63.90;;;59.13;;
17566;SDS011;8901;52.088;5.084;2023-02-04T07:39:28;62.37;;;58.37;;
17566;SDS011;8901;52.088;5.084;2023-02-04T07:41:55;61.60;;;57.37;;
17566;SDS011;8901;52.088;5.084;2023-02-04T07:44:22;62.80;;;58.30;;
17566;SDS011;8901;52.088;5.084;2023-02-04T07:46:49;60.03;;;55.93;;
17566;SDS011;8901;52.088;5.084;2023-02-04T07:49:16;63.03;;;58.63;;
17566;SDS011;8901;52.088;5.084;2023-02-04T07:51:45;61.53;;;57.13;;
17566;SDS011;8901;52.088;5.084;2023-02-04T07:54:12;61.93;;;57.40;;
17566;SDS011;8901;52.088;5.084;2023-02-04T07:56:39;63.70;;;59.07;;
17566;SDS011;8901;52.088;5.084;2023-02-04T07:59:07;62.23;;;57.70;;
17566;SDS011;8901;52.088;5.084;2023-02-04T08:01:34;61.77;;;57.23;;
17566;SDS011;8901;52.088;5.084;2023-02-04T08:04:01;62.13;;;57.43;;
17566;SDS011;8901;52.088;5.084;2023-02-04T08:06:28;59.97;;;55.97;;
17566;SDS011;8901;52.088;5.084;2023-02-04T08:08:57;60.03;;;55.47;;
17566;SDS011;8901;52.088;5.084;2023-02-04T08:11:24;59.47;;;55.60;;
17566;SDS011;8901;52.088;5.084;2023-02-04T08:13:52;62.10;;;57.53;;
17566;SDS011;8901;52.088;5.084;2023-02-04T08:16:19;63.90;;;58.30;;
17566;SDS011;8901;52.088;5.084;2023-02-04T08:18:47;62.13;;;57.60;;
17566;SDS011;8901;52.088;5.084;2023-02-04T08:21:14;62.00;;;57.57;;
17566;SDS011;8901;52.088;5.084;2023-02-04T08:23:41;59.27;;;54.83;;
17566;SDS011;8901;52.088;5.084;2023-02-04T08:26:10;59.27;;;54.73;;
17566;SDS011;8901;52.088;5.084;2023-02-04T08:28:37;60.70;;;55.57;;
17566;SDS011;8901;52.088;5.084;2023-02-04T08:31:04;57.97;;;53.63;;
17566;SDS011;8901;52.088;5.084;2023-02-04T08:33:35;57.20;;;52.73;;
17566;SDS011;8901;52.088;5.084;2023-02-04T08:36:03;63.93;;;58.87;;
17566;SDS011;8901;52.088;5.084;2023-02-04T08:38:30;58.10;;;52.53;;
17566;SDS011;8901;52.088;5.084;2023-02-04T08:40:57;56.63;;;51.73;;
17566;SDS011;8901;52.088;5.084;2023-02-04T08:43:26;60.33;;;55.00;;
17566;SDS011;8901;52.088;5.084;2023-02-04T08:45:53;53.87;;;49.53;;
17566;SDS011;8901;52.088;5.084;2023-02-04T08:48:21;55.90;;;50.97;;
17566;SDS011;8901;52.088;5.084;2023-02-04T08:50:48;58.60;;;53.77;;
17566;SDS011;8901;52.088;5.084;2023-02-04T08:53:15;60.63;;;55.17;;
17566;SDS011;8901;52.088;5.084;2023-02-04T08:55:42;57.70;;;53.00;;
17566;SDS011;8901;52.088;5.084;2023-02-04T08:58:09;56.47;;;52.13;;
17566;SDS011;8901;52.088;5.084;2023-02-04T09:00:38;56.67;;;52.00;;
17566;SDS011;8901;52.088;5.084;2023-02-04T09:03:05;53.00;;;48.63;;
17566;SDS011;8901;52.088;5.084;2023-02-04T09:05:32;57.07;;;52.57;;
17566;SDS011;8901;52.088;5.084;2023-02-04T09:07:59;58.50;;;53.13;;
17566;SDS011;8901;52.088;5.084;2023-02-04T09:10:26;59.87;;;54.40;;
17566;SDS011;8901;52.088;5.084;2023-02-04T09:12:54;62.53;;;56.63;;
17566;SDS011;8901;52.088;5.084;2023-02-04T09:15:21;58.53;;;54.00;;
17566;SDS011;8901;52.088;5.084;2023-02-04T09:17:50;59.40;;;54.20;;
17566;SDS011;8901;52.088;5.084;2023-02-04T09:20:25;61.43;;;55.87;;
17566;SDS011;8901;52.088;5.084;2023-02-04T09:22:53;64.87;;;59.10;;
17566;SDS011;8901;52.088;5.084;2023-02-04T09:25:20;63.87;;;58.47;;
17566;SDS011;8901;52.088;5.084;2023-02-04T09:27:47;65.30;;;60.03;;
17566;SDS011;8901;52.088;5.084;2023-02-04T09:30:14;62.30;;;57.20;;
17566;SDS011;8901;52.088;5.084;2023-02-04T09:32:42;62.53;;;57.60;;
17566;SDS011;8901;52.088;5.084;2023-02-04T09:35:10;63.80;;;58.67;;
17566;SDS011;8901;52.088;5.084;2023-02-04T09:37:37;61.03;;;56.20;;
17566;SDS011;8901;52.088;5.084;2023-02-04T09:40:05;66.07;;;60.83;;
17566;SDS011;8901;52.088;5.084;2023-02-04T09:42:32;61.07;;;56.47;;
17566;SDS011;8901;52.088;5.084;2023-02-04T09:44:59;59.50;;;54.67;;
17566;SDS011;8901;52.088;5.084;2023-02-04T09:47:27;57.00;;;52.47;;
17566;SDS011;8901;52.088;5.084;2023-02-04T09:49:55;60.73;;;55.83;;
17566;SDS011;8901;52.088;5.084;2023-02-04T09:52:24;66.30;;;60.97;;
17566;SDS011;8901;52.088;5.084;2023-02-04T09:54:52;66.50;;;61.17;;
17566;SDS011;8901;52.088;5.084;2023-02-04T09:57:20;59.23;;;54.23;;
17566;SDS011;8901;52.088;5.084;2023-02-04T09:59:47;181.87;;;60.40;;
17566;SDS011;8901;52.088;5.084;2023-02-04T10:02:19;49.47;;;44.87;;
17566;SDS011;8901;52.088;5.084;2023-02-04T10:04:46;44.70;;;39.87;;
17566;SDS011;8901;52.088;5.084;2023-02-04T10:07:14;43.90;;;39.53;;
17566;SDS011;8901;52.088;5.084;2023-02-04T10:09:47;44.50;;;39.17;;
17566;SDS011;8901;52.088;5.084;2023-02-04T10:12:15;48.37;;;37.30;;
17566;SDS011;8901;52.088;5.084;2023-02-04T10:14:42;47.80;;;42.70;;
17566;SDS011;8901;52.088;5.084;2023-02-04T10:17:09;46.00;;;41.27;;
17566;SDS011;8901;52.088;5.084;2023-02-04T10:19:37;47.47;;;43.10;;
17566;SDS011;8901;52.088;5.084;2023-02-04T10:22:09;47.90;;;43.03;;
17566;SDS011;8901;52.088;5.084;2023-02-04T10:24:41;44.30;;;39.77;;
17566;SDS011;8901;52.088;5.084;2023-02-04T10:27:10;45.20;;;40.87;;
17566;SDS011;8901;52.088;5.084;2023-02-04T10:29:40;44.83;;;40.23;;
17566;SDS011;8901;52.088;5.084;2023-02-04T10:34:49;45.37;;;40.23;;
17566;SDS011;8901;52.088;5.084;2023-02-04T10:37:18;44.10;;;40.10;;
17566;SDS011;8901;52.088;5.084;2023-02-04T10:39:45;46.73;;;42.73;;
17566;SDS011;8901;52.088;5.084;2023-02-04T10:42:19;47.63;;;43.17;;
17566;SDS011;8901;52.088;5.084;2023-02-04T10:44:46;46.73;;;42.10;;
17566;SDS011;8901;52.088;5.084;2023-02-04T10:47:14;47.57;;;43.10;;
17566;SDS011;8901;52.088;5.084;2023-02-04T10:49:50;46.83;;;42.70;;
17566;SDS011;8901;52.088;5.084;2023-02-04T10:52:17;49.37;;;45.20;;
17566;SDS011;8901;52.088;5.084;2023-02-04T10:54:45;53.63;;;48.63;;
17566;SDS011;8901;52.088;5.084;2023-02-04T10:57:16;52.33;;;47.23;;
17566;SDS011;8901;52.088;5.084;2023-02-04T10:59:45;53.03;;;48.47;;
17566;SDS011;8901;52.088;5.084;2023-02-04T11:02:23;54.97;;;49.80;;
17566;SDS011;8901;52.088;5.084;2023-02-04T11:04:53;58.67;;;53.00;;
17566;SDS011;8901;52.088;5.084;2023-02-04T11:07:20;54.77;;;48.90;;
17566;SDS011;8901;52.088;5.084;2023-02-04T11:09:48;53.63;;;49.23;;
17566;SDS011;8901;52.088;5.084;2023-02-04T11:12:19;56.67;;;52.20;;
17566;SDS011;8901;52.088;5.084;2023-02-04T11:14:54;60.27;;;55.37;;
17566;SDS011;8901;52.088;5.084;2023-02-04T11:17:27;58.80;;;53.37;;
17566;SDS011;8901;52.088;5.084;2023-02-04T11:19:55;53.30;;;49.27;;
17566;SDS011;8901;52.088;5.084;2023-02-04T11:22:35;59.00;;;54.30;;
17566;SDS011;8901;52.088;5.084;2023-02-04T11:25:02;55.97;;;51.40;;
17566;SDS011;8901;52.088;5.084;2023-02-04T11:27:36;56.30;;;51.27;;
17566;SDS011;8901;52.088;5.084;2023-02-04T11:30:07;56.03;;;51.73;;
17566;SDS011;8901;52.088;5.084;2023-02-04T11:32:54;62.27;;;56.07;;
17566;SDS011;8901;52.088;5.084;2023-02-04T11:35:23;59.73;;;54.87;;
17566;SDS011;8901;52.088;5.084;2023-02-04T11:37:50;64.33;;;59.20;;
17566;SDS011;8901;52.088;5.084;2023-02-04T11:40:25;55.67;;;51.83;;
17566;SDS011;8901;52.088;5.084;2023-02-04T11:42:56;62.37;;;57.43;;
17566;SDS011;8901;52.088;5.084;2023-02-04T11:45:25;62.17;;;57.20;;
17566;SDS011;8901;52.088;5.084;2023-02-04T11:47:55;61.97;;;57.00;;
17566;SDS011;8901;52.088;5.084;2023-02-04T11:50:23;60.97;;;55.87;;
17566;SDS011;8901;52.088;5.084;2023-02-04T11:52:52;57.80;;;53.40;;
17566;SDS011;8901;52.088;5.084;2023-02-04T11:55:20;62.53;;;57.77;;
17566;SDS011;8901;52.088;5.084;2023-02-04T11:57:50;62.77;;;58.17;;
17566;SDS011;8901;52.088;5.084;2023-02-04T12:00:18;62.17;;;57.60;;
17566;SDS011;8901;52.088;5.084;2023-02-04T12:02:47;61.10;;;56.60;;
17566;SDS011;8901;52.088;5.084;2023-02-04T12:05:15;57.33;;;53.03;;
17566;SDS011;8901;52.088;5.084;2023-02-04T12:07:43;58.70;;;54.70;;
17566;SDS011;8901;52.088;5.084;2023-02-04T12:10:13;63.57;;;58.87;;
17566;SDS011;8901;52.088;5.084;2023-02-04T12:12:41;61.90;;;57.83;;
17566;SDS011;8901;52.088;5.084;2023-02-04T12:15:12;62.60;;;58.23;;
17566;SDS011;8901;52.088;5.084;2023-02-04T12:17:42;52.93;;;49.10;;
17566;SDS011;8901;52.088;5.084;2023-02-04T12:20:11;50.30;;;46.07;;
17566;SDS011;8901;52.088;5.084;2023-02-04T12:22:39;52.37;;;48.07;;
17566;SDS011;8901;52.088;5.084;2023-02-04T12:25:06;54.93;;;50.83;;
17566;SDS011;8901;52.088;5.084;2023-02-04T12:27:33;58.20;;;54.23;;
17566;SDS011;8901;52.088;5.084;2023-02-04T12:30:01;60.10;;;55.50;;
17566;SDS011;8901;52.088;5.084;2023-02-04T12:32:28;61.57;;;57.20;;
17566;SDS011;8901;52.088;5.084;2023-02-04T12:34:55;59.23;;;55.13;;
17566;SDS011;8901;52.088;5.084;2023-02-04T12:37:28;62.33;;;57.97;;
17566;SDS011;8901;52.088;5.084;2023-02-04T12:39:55;61.20;;;56.77;;
17566;SDS011;8901;52.088;5.084;2023-02-04T12:42:22;56.00;;;51.77;;
17566;SDS011;8901;52.088;5.084;2023-02-04T12:44:49;56.63;;;52.03;;
17566;SDS011;8901;52.088;5.084;2023-02-04T12:47:16;57.90;;;53.77;;
17566;SDS011;8901;52.088;5.084;2023-02-04T12:49:44;57.00;;;53.00;;
17566;SDS011;8901;52.088;5.084;2023-02-04T12:52:12;61.27;;;56.63;;
17566;SDS011;8901;52.088;5.084;2023-02-04T12:54:40;62.23;;;57.60;;
17566;SDS011;8901;52.088;5.084;2023-02-04T12:57:08;69.00;;;64.73;;
17566;SDS011;8901;52.088;5.084;2023-02-04T12:59:35;70.33;;;65.17;;
17566;SDS011;8901;52.088;5.084;2023-02-04T13:02:02;74.63;;;69.53;;
17566;SDS011;8901;52.088;5.084;2023-02-04T13:04:30;66.43;;;61.90;;
17566;SDS011;8901;52.088;5.084;2023-02-04T13:06:57;63.23;;;58.83;;
17566;SDS011;8901;52.088;5.084;2023-02-04T13:09:24;59.40;;;55.00;;
17566;SDS011;8901;52.088;5.084;2023-02-04T13:11:53;57.17;;;53.33;;
17566;SDS011;8901;52.088;5.084;2023-02-04T13:14:20;58.93;;;54.70;;
17566;SDS011;8901;52.088;5.084;2023-02-04T13:16:47;56.23;;;52.07;;
17566;SDS011;8901;52.088;5.084;2023-02-04T13:19:14;58.27;;;54.57;;
17566;SDS011;8901;52.088;5.084;2023-02-04T13:21:42;57.97;;;53.90;;
17566;SDS011;8901;52.088;5.084;2023-02-04T13:24:09;55.70;;;52.03;;
17566;SDS011;8901;52.088;5.084;2023-02-04T13:26:36;60.07;;;56.07;;
17566;SDS011;8901;52.088;5.084;2023-02-04T13:29:05;59.17;;;55.13;;
17566;SDS011;8901;52.088;5.084;2023-02-04T13:31:32;59.07;;;55.17;;
17566;SDS011;8901;52.088;5.084;2023-02-04T13:33:59;57.63;;;53.57;;
17566;SDS011;8901;52.088;5.084;2023-02-04T13:36:28;55.17;;;51.50;;
17566;SDS011;8901;52.088;5.084;2023-02-04T13:38:58;52.90;;;49.37;;
17566;SDS011;8901;52.088;5.084;2023-02-04T13:41:25;54.93;;;51.37;;
17566;SDS011;8901;52.088;5.084;2023-02-04T13:43:58;52.13;;;48.80;;
17566;SDS011;8901;52.088;5.084;2023-02-04T13:46:28;55.73;;;52.17;;
17566;SDS011;8901;52.088;5.084;2023-02-04T13:48:55;56.53;;;53.03;;
17566;SDS011;8901;52.088;5.084;2023-02-04T13:51:23;56.97;;;53.27;;
17566;SDS011;8901;52.088;5.084;2023-02-04T13:53:51;54.67;;;51.37;;
17566;SDS011;8901;52.088;5.084;2023-02-04T13:56:20;54.60;;;50.90;;
17566;SDS011;8901;52.088;5.084;2023-02-04T13:58:48;52.27;;;48.77;;
17566;SDS011;8901;52.088;5.084;2023-02-04T14:01:17;56.20;;;52.23;;
17566;SDS011;8901;52.088;5.084;2023-02-04T14:03:46;58.70;;;55.10;;
17566;SDS011;8901;52.088;5.084;2023-02-04T14:06:14;54.67;;;51.17;;
17566;SDS011;8901;52.088;5.084;2023-02-04T14:08:46;55.67;;;51.97;;
17566;SDS011;8901;52.088;5.084;2023-02-04T14:11:13;59.80;;;55.97;;
17566;SDS011;8901;52.088;5.084;2023-02-04T14:13:40;63.77;;;59.47;;
17566;SDS011;8901;52.088;5.084;2023-02-04T14:16:10;65.27;;;61.13;;
17566;SDS011;8901;52.088;5.084;2023-02-04T14:18:37;65.07;;;60.77;;
17566;SDS011;8901;52.088;5.084;2023-02-04T14:21:05;60.97;;;57.07;;
17566;SDS011;8901;52.088;5.084;2023-02-04T14:23:34;60.13;;;56.37;;
17566;SDS011;8901;52.088;5.084;2023-02-04T14:26:01;60.23;;;56.53;;
17566;SDS011;8901;52.088;5.084;2023-02-04T14:28:28;58.90;;;55.23;;
17566;SDS011;8901;52.088;5.084;2023-02-04T14:30:55;72.50;;;68.00;;
17566;SDS011;8901;52.088;5.084;2023-02-04T14:33:22;70.57;;;66.00;;
17566;SDS011;8901;52.088;5.084;2023-02-04T14:35:51;64.03;;;59.60;;
17566;SDS011;8901;52.088;5.084;2023-02-04T14:38:20;61.37;;;57.27;;
17566;SDS011;8901;52.088;5.084;2023-02-04T14:40:47;61.60;;;57.37;;
17566;SDS011;8901;52.088;5.084;2023-02-04T14:43:14;61.17;;;56.60;;